AAL1216 KCLT-KEWR
Flight info
| Callsign | AAL1216 |
|---|---|
| Flight time | 1h 27m |
| Altitude | 37000 |
| Route | KILNS5 AUDII QUART PHLBO4 |
| Aircraft | A319/M-SDE3FGHIRWY/LB1 |
Departure
| Time | 2026-04-21 01:03 |
|---|---|
| Airport | Charlotte Douglas International Airport (KCLT) |
Arrival
| Time | 2026-04-21 02:30 |
|---|---|
| Airport | Newark Liberty International Airport (KEWR) |
| Time | Latitude | Longitude | Altitude | Speed | Heading |
|---|---|---|---|---|---|
| 2026-04-21 00:32 | 35.21766 | -80.94594 | 736 ft | 0 kts | 57° |
| 2026-04-21 00:49 | 35.21755 | -80.94615 | 735 ft | 4 kts | 60° |
| 2026-04-21 00:49 | 35.21742 | -80.94644 | 734 ft | 4 kts | 63° |
| 2026-04-21 00:49 | 35.21730 | -80.94674 | 733 ft | 4 kts | 67° |
| 2026-04-21 00:49 | 35.21721 | -80.94706 | 734 ft | 4 kts | 80° |
| 2026-04-21 00:50 | 35.21721 | -80.94734 | 734 ft | 4 kts | 156° |
| 2026-04-21 00:50 | 35.21730 | -80.94737 | 734 ft | 0 kts | 173° |
| 2026-04-21 00:53 | 35.21714 | -80.94735 | 734 ft | 5 kts | 173° |
| 2026-04-21 00:53 | 35.21656 | -80.94724 | 732 ft | 11 kts | 161° |
| 2026-04-21 00:53 | 35.21613 | -80.94643 | 733 ft | 13 kts | 111° |
| 2026-04-21 00:54 | 35.21556 | -80.94555 | 732 ft | 14 kts | 137° |
| 2026-04-21 00:54 | 35.21478 | -80.94465 | 731 ft | 16 kts | 137° |
| 2026-04-21 00:54 | 35.21424 | -80.94408 | 732 ft | 9 kts | 140° |
| 2026-04-21 00:54 | 35.21372 | -80.94354 | 733 ft | 11 kts | 141° |
| 2026-04-21 00:55 | 35.21309 | -80.94295 | 732 ft | 13 kts | 144° |
| 2026-04-21 00:55 | 35.21292 | -80.94193 | 733 ft | 13 kts | 77° |
| 2026-04-21 00:55 | 35.21344 | -80.94100 | 735 ft | 13 kts | 49° |
| 2026-04-21 00:55 | 35.21404 | -80.94013 | 736 ft | 13 kts | 53° |
| 2026-04-21 00:56 | 35.21463 | -80.93923 | 737 ft | 13 kts | 51° |
| 2026-04-21 00:56 | 35.21507 | -80.93857 | 739 ft | 0 kts | 49° |
| 2026-04-21 00:56 | 35.21521 | -80.93836 | 740 ft | 9 kts | 57° |
| 2026-04-21 00:57 | 35.21502 | -80.93771 | 742 ft | 9 kts | 135° |
| 2026-04-21 00:57 | 35.21450 | -80.93714 | 743 ft | 11 kts | 138° |
| 2026-04-21 00:57 | 35.21381 | -80.93659 | 744 ft | 13 kts | 163° |
| 2026-04-21 00:57 | 35.21287 | -80.93651 | 743 ft | 15 kts | 177° |
| 2026-04-21 00:58 | 35.21273 | -80.93650 | 743 ft | 0 kts | 177° |
| 2026-04-21 00:58 | 35.21272 | -80.93650 | 743 ft | 1 kts | 176° |
| 2026-04-21 00:59 | 35.21241 | -80.93646 | 742 ft | 7 kts | 173° |
| 2026-04-21 00:59 | 35.21183 | -80.93640 | 742 ft | 11 kts | 175° |
| 2026-04-21 00:59 | 35.21096 | -80.93632 | 741 ft | 14 kts | 175° |
| 2026-04-21 00:59 | 35.20995 | -80.93622 | 740 ft | 16 kts | 175° |
| 2026-04-21 01:00 | 35.20878 | -80.93610 | 739 ft | 18 kts | 175° |
| 2026-04-21 01:00 | 35.20751 | -80.93601 | 738 ft | 18 kts | 178° |
| 2026-04-21 01:00 | 35.20642 | -80.93594 | 737 ft | 16 kts | 175° |
| 2026-04-21 01:00 | 35.20523 | -80.93583 | 736 ft | 18 kts | 175° |
| 2026-04-21 01:01 | 35.20435 | -80.93575 | 735 ft | 19 kts | 175° |
| 2026-04-21 01:01 | 35.20295 | -80.93561 | 734 ft | 21 kts | 177° |
| 2026-04-21 01:01 | 35.20173 | -80.93555 | 733 ft | 12 kts | 176° |
| 2026-04-21 01:01 | 35.20108 | -80.93493 | 731 ft | 12 kts | 96° |
| 2026-04-21 01:02 | 35.20147 | -80.93426 | 732 ft | 9 kts | 10° |
| 2026-04-21 01:02 | 35.20326 | -80.93433 | 736 ft | 61 kts | 356° |
| 2026-04-21 01:02 | 35.21005 | -80.93493 | 740 ft | 132 kts | 356° |
| 2026-04-21 01:02 | 35.22136 | -80.93589 | 873 ft | 177 kts | 355° |
| 2026-04-21 01:03 | 35.23444 | -80.93708 | 1446 ft | 189 kts | 355° |
| 2026-04-21 01:03 | 35.24762 | -80.93845 | 2428 ft | 182 kts | 353° |
| 2026-04-21 01:03 | 35.26093 | -80.94004 | 3065 ft | 199 kts | 353° |
| 2026-04-21 01:03 | 35.27556 | -80.94180 | 3640 ft | 223 kts | 353° |
| 2026-04-21 01:04 | 35.29213 | -80.94379 | 4275 ft | 246 kts | 353° |
| 2026-04-21 01:04 | 35.30943 | -80.94090 | 5132 ft | 263 kts | 21° |
| 2026-04-21 01:04 | 35.32404 | -80.92634 | 6145 ft | 277 kts | 52° |
| 2026-04-21 01:04 | 35.33064 | -80.90321 | 7130 ft | 291 kts | 84° |
| 2026-04-21 01:05 | 35.33021 | -80.87735 | 8134 ft | 297 kts | 89° |
| 2026-04-21 01:05 | 35.32990 | -80.85169 | 9113 ft | 302 kts | 89° |
| 2026-04-21 01:05 | 35.32986 | -80.82559 | 10082 ft | 308 kts | 88° |
| 2026-04-21 01:05 | 35.32995 | -80.79829 | 10652 ft | 328 kts | 88° |
| 2026-04-21 01:06 | 35.33004 | -80.77788 | 10990 ft | 343 kts | 88° |
| 2026-04-21 01:06 | 35.33011 | -80.74773 | 11794 ft | 350 kts | 88° |
| 2026-04-21 01:06 | 35.33011 | -80.71688 | 12749 ft | 354 kts | 88° |
| 2026-04-21 01:06 | 35.33005 | -80.68651 | 13640 ft | 359 kts | 87° |
| 2026-04-21 01:07 | 35.32996 | -80.65547 | 14361 ft | 367 kts | 87° |
| 2026-04-21 01:07 | 35.32984 | -80.62355 | 15092 ft | 372 kts | 86° |
| 2026-04-21 01:07 | 35.32970 | -80.59121 | 15859 ft | 377 kts | 86° |
| 2026-04-21 01:07 | 35.32956 | -80.55898 | 16586 ft | 381 kts | 86° |
| 2026-04-21 01:08 | 35.32943 | -80.52582 | 17326 ft | 386 kts | 85° |
| 2026-04-21 01:08 | 35.33100 | -80.49261 | 18064 ft | 385 kts | 75° |
| 2026-04-21 01:08 | 35.33774 | -80.46090 | 18752 ft | 381 kts | 63° |
| 2026-04-21 01:08 | 35.34724 | -80.43064 | 19388 ft | 385 kts | 62° |
| 2026-04-21 01:09 | 35.35688 | -80.39947 | 20086 ft | 389 kts | 62° |
| 2026-04-21 01:09 | 35.36642 | -80.36827 | 20743 ft | 393 kts | 62° |
| 2026-04-21 01:09 | 35.37632 | -80.33556 | 21428 ft | 397 kts | 62° |
| 2026-04-21 01:09 | 35.38584 | -80.30399 | 22060 ft | 401 kts | 62° |
| 2026-04-21 01:10 | 35.39629 | -80.26935 | 22749 ft | 405 kts | 61° |
| 2026-04-21 01:10 | 35.40626 | -80.23631 | 23391 ft | 409 kts | 61° |
| 2026-04-21 01:10 | 35.41619 | -80.20344 | 23981 ft | 413 kts | 61° |
| 2026-04-21 01:10 | 35.42296 | -80.18101 | 24324 ft | 416 kts | 61° |
| 2026-04-21 01:11 | 35.43325 | -80.14692 | 24845 ft | 419 kts | 61° |
| 2026-04-21 01:11 | 35.44362 | -80.11278 | 25364 ft | 421 kts | 60° |
| 2026-04-21 01:11 | 35.45409 | -80.07854 | 25857 ft | 424 kts | 60° |
| 2026-04-21 01:11 | 35.46452 | -80.04457 | 26343 ft | 427 kts | 60° |
| 2026-04-21 01:12 | 35.47503 | -80.01033 | 26795 ft | 430 kts | 60° |
| 2026-04-21 01:12 | 35.48558 | -79.97587 | 27289 ft | 433 kts | 60° |
| 2026-04-21 01:12 | 35.49619 | -79.94109 | 27756 ft | 436 kts | 60° |
| 2026-04-21 01:12 | 35.50682 | -79.90607 | 28213 ft | 439 kts | 60° |
| 2026-04-21 01:13 | 35.51750 | -79.87076 | 28689 ft | 442 kts | 60° |
| 2026-04-21 01:13 | 35.52823 | -79.83526 | 29160 ft | 445 kts | 60° |
| 2026-04-21 01:13 | 35.53909 | -79.79957 | 29621 ft | 447 kts | 59° |
| 2026-04-21 01:13 | 35.55018 | -79.76385 | 30071 ft | 450 kts | 59° |
| 2026-04-21 01:14 | 35.56146 | -79.72796 | 30511 ft | 451 kts | 59° |
| 2026-04-21 01:14 | 35.57276 | -79.69210 | 31004 ft | 450 kts | 59° |
| 2026-04-21 01:14 | 35.58390 | -79.65598 | 31248 ft | 456 kts | 62° |
| 2026-04-21 01:14 | 35.59078 | -79.61731 | 31294 ft | 467 kts | 71° |
| 2026-04-21 01:15 | 35.60280 | -79.53928 | 31277 ft | 464 kts | 70° |
| 2026-04-21 01:15 | 35.61491 | -79.46123 | 31275 ft | 464 kts | 70° |
| 2026-04-21 01:16 | 35.62708 | -79.38279 | 31280 ft | 466 kts | 70° |
| 2026-04-21 01:16 | 35.63318 | -79.34369 | 31639 ft | 468 kts | 70° |
| 2026-04-21 01:16 | 35.63945 | -79.30386 | 32015 ft | 471 kts | 70° |
| 2026-04-21 01:17 | 35.64573 | -79.26437 | 32363 ft | 474 kts | 70° |
| 2026-04-21 01:17 | 35.65208 | -79.22470 | 32697 ft | 477 kts | 70° |
| 2026-04-21 01:17 | 35.65861 | -79.18421 | 33089 ft | 478 kts | 70° |
| 2026-04-21 01:17 | 35.66507 | -79.14431 | 33279 ft | 479 kts | 70° |
| 2026-04-21 01:18 | 35.67804 | -79.06412 | 33286 ft | 477 kts | 70° |
| 2026-04-21 01:18 | 35.69110 | -78.98330 | 33277 ft | 477 kts | 70° |
| 2026-04-21 01:19 | 35.70402 | -78.90330 | 33270 ft | 477 kts | 70° |
| 2026-04-21 01:19 | 35.71698 | -78.82286 | 33276 ft | 477 kts | 70° |
| 2026-04-21 01:20 | 35.73003 | -78.74189 | 33511 ft | 479 kts | 70° |
| 2026-04-21 01:20 | 35.73658 | -78.70142 | 34042 ft | 478 kts | 70° |
| 2026-04-21 01:20 | 35.74309 | -78.66150 | 34499 ft | 477 kts | 70° |
| 2026-04-21 01:21 | 35.74982 | -78.62120 | 34868 ft | 477 kts | 70° |
| 2026-04-21 01:21 | 35.75676 | -78.58102 | 35201 ft | 479 kts | 70° |
| 2026-04-21 01:21 | 35.76388 | -78.54101 | 35522 ft | 480 kts | 70° |
| 2026-04-21 01:21 | 35.77143 | -78.49979 | 35848 ft | 481 kts | 70° |
| 2026-04-21 01:22 | 35.77904 | -78.45935 | 36175 ft | 482 kts | 70° |
| 2026-04-21 01:22 | 35.78677 | -78.41934 | 36495 ft | 483 kts | 69° |
| 2026-04-21 01:22 | 35.79476 | -78.37901 | 36832 ft | 484 kts | 69° |
| 2026-04-21 01:22 | 35.80313 | -78.33785 | 37148 ft | 485 kts | 69° |
| 2026-04-21 01:23 | 35.81154 | -78.29744 | 37286 ft | 488 kts | 69° |
| 2026-04-21 01:23 | 35.82016 | -78.25651 | 37277 ft | 488 kts | 69° |
| 2026-04-21 01:23 | 35.83737 | -78.17519 | 37277 ft | 487 kts | 69° |
| 2026-04-21 01:24 | 35.85183 | -78.10734 | 37278 ft | 488 kts | 69° |
| 2026-04-21 01:24 | 35.87299 | -78.02816 | 37283 ft | 466 kts | 53° |
| 2026-04-21 01:25 | 35.89185 | -77.99610 | 37286 ft | 448 kts | 38° |
| 2026-04-21 01:25 | 35.91513 | -77.97175 | 37286 ft | 432 kts | 24° |
| 2026-04-21 01:25 | 35.94162 | -77.95482 | 37285 ft | 417 kts | 12° |
| 2026-04-21 01:25 | 35.96955 | -77.94558 | 37280 ft | 404 kts | 0° |
| 2026-04-21 01:26 | 36.02619 | -77.93754 | 37280 ft | 402 kts | 359° |
| 2026-04-21 01:26 | 36.08211 | -77.92922 | 37283 ft | 402 kts | 359° |
| 2026-04-21 01:27 | 36.13796 | -77.92093 | 37292 ft | 401 kts | 359° |
| 2026-04-21 01:27 | 36.19413 | -77.91270 | 37313 ft | 401 kts | 359° |
| 2026-04-21 01:28 | 36.24950 | -77.90463 | 37318 ft | 400 kts | 359° |
| 2026-04-21 01:28 | 36.30508 | -77.89648 | 37322 ft | 399 kts | 359° |
| 2026-04-21 01:29 | 36.36054 | -77.88831 | 37323 ft | 398 kts | 359° |
| 2026-04-21 01:29 | 36.41628 | -77.88014 | 37327 ft | 397 kts | 359° |
| 2026-04-21 01:30 | 36.47152 | -77.87199 | 37324 ft | 397 kts | 359° |
| 2026-04-21 01:30 | 36.52671 | -77.86381 | 37357 ft | 396 kts | 359° |
| 2026-04-21 01:31 | 36.58171 | -77.85566 | 37367 ft | 395 kts | 359° |
| 2026-04-21 01:31 | 36.63657 | -77.84754 | 37344 ft | 394 kts | 359° |
| 2026-04-21 01:32 | 36.69096 | -77.83952 | 37356 ft | 393 kts | 359° |
| 2026-04-21 01:32 | 36.73641 | -77.83278 | 37353 ft | 392 kts | 360° |
| 2026-04-21 01:33 | 36.79091 | -77.82464 | 37350 ft | 391 kts | 360° |
| 2026-04-21 01:33 | 36.84497 | -77.81662 | 37341 ft | 391 kts | 359° |
| 2026-04-21 01:34 | 36.89917 | -77.80861 | 37331 ft | 391 kts | 359° |
| 2026-04-21 01:34 | 36.95367 | -77.80049 | 37309 ft | 391 kts | 360° |
| 2026-04-21 01:35 | 37.00775 | -77.79237 | 37308 ft | 391 kts | 360° |
| 2026-04-21 01:35 | 37.06201 | -77.78428 | 37303 ft | 391 kts | 359° |
| 2026-04-21 01:36 | 37.11641 | -77.77618 | 37305 ft | 391 kts | 359° |
| 2026-04-21 01:36 | 37.17081 | -77.76808 | 37304 ft | 391 kts | 360° |
| 2026-04-21 01:37 | 37.22524 | -77.75991 | 37308 ft | 391 kts | 360° |
| 2026-04-21 01:37 | 37.27936 | -77.75172 | 37322 ft | 392 kts | 360° |
| 2026-04-21 01:38 | 37.33348 | -77.74353 | 37326 ft | 392 kts | 360° |
| 2026-04-21 01:38 | 37.38800 | -77.73530 | 37330 ft | 392 kts | 360° |
| 2026-04-21 01:39 | 37.44263 | -77.72708 | 37328 ft | 393 kts | 360° |
| 2026-04-21 01:39 | 37.49733 | -77.71873 | 37335 ft | 394 kts | 1° |
| 2026-04-21 01:40 | 37.52449 | -77.70990 | 37331 ft | 405 kts | 13° |
| 2026-04-21 01:40 | 37.54988 | -77.69401 | 37332 ft | 417 kts | 24° |
| 2026-04-21 01:40 | 37.59875 | -77.65392 | 37348 ft | 418 kts | 24° |
| 2026-04-21 01:41 | 37.64829 | -77.61397 | 37355 ft | 418 kts | 24° |
| 2026-04-21 01:41 | 37.69741 | -77.57445 | 37355 ft | 418 kts | 24° |
| 2026-04-21 01:42 | 37.74710 | -77.53419 | 37363 ft | 418 kts | 24° |
| 2026-04-21 01:42 | 37.79658 | -77.49398 | 37363 ft | 419 kts | 24° |
| 2026-04-21 01:43 | 37.84573 | -77.45402 | 37365 ft | 419 kts | 24° |
| 2026-04-21 01:43 | 37.89474 | -77.41412 | 37359 ft | 419 kts | 24° |
| 2026-04-21 01:44 | 37.93573 | -77.38074 | 37355 ft | 419 kts | 24° |
| 2026-04-21 01:44 | 37.98504 | -77.34041 | 37354 ft | 419 kts | 25° |
| 2026-04-21 01:45 | 38.03440 | -77.29997 | 37363 ft | 419 kts | 25° |
| 2026-04-21 01:45 | 38.08323 | -77.26006 | 37362 ft | 419 kts | 25° |
| 2026-04-21 01:46 | 38.13287 | -77.21936 | 37371 ft | 419 kts | 25° |
| 2026-04-21 01:46 | 38.18243 | -77.17857 | 37372 ft | 419 kts | 25° |
| 2026-04-21 01:47 | 38.23171 | -77.13798 | 37374 ft | 421 kts | 25° |
| 2026-04-21 01:47 | 38.28182 | -77.09682 | 37394 ft | 435 kts | 25° |
| 2026-04-21 01:48 | 38.33145 | -77.05283 | 37226 ft | 438 kts | 29° |
| 2026-04-21 01:48 | 38.35605 | -77.02896 | 36974 ft | 438 kts | 30° |
| 2026-04-21 01:48 | 38.37969 | -77.00543 | 36736 ft | 435 kts | 30° |
| 2026-04-21 01:49 | 38.40379 | -76.98138 | 36498 ft | 432 kts | 30° |
| 2026-04-21 01:49 | 38.42439 | -76.96097 | 36282 ft | 429 kts | 29° |
| 2026-04-21 01:49 | 38.44800 | -76.93778 | 36042 ft | 425 kts | 29° |
| 2026-04-21 01:49 | 38.47143 | -76.91501 | 35807 ft | 421 kts | 28° |
| 2026-04-21 01:50 | 38.49466 | -76.89265 | 35571 ft | 417 kts | 28° |
| 2026-04-21 01:50 | 38.51776 | -76.87051 | 35345 ft | 414 kts | 28° |
| 2026-04-21 01:50 | 38.54085 | -76.84835 | 35112 ft | 411 kts | 28° |
| 2026-04-21 01:50 | 38.56339 | -76.82667 | 34898 ft | 408 kts | 28° |
| 2026-04-21 01:51 | 38.58600 | -76.80478 | 34664 ft | 405 kts | 28° |
| 2026-04-21 01:51 | 38.60830 | -76.78311 | 34446 ft | 402 kts | 28° |
| 2026-04-21 01:51 | 38.63045 | -76.76156 | 34199 ft | 399 kts | 28° |
| 2026-04-21 01:51 | 38.65250 | -76.74010 | 33927 ft | 395 kts | 27° |
| 2026-04-21 01:52 | 38.67447 | -76.71874 | 33662 ft | 392 kts | 27° |
| 2026-04-21 01:52 | 38.71763 | -76.67671 | 33142 ft | 386 kts | 27° |
| 2026-04-21 01:52 | 38.73893 | -76.65596 | 32879 ft | 383 kts | 27° |
| 2026-04-21 01:53 | 38.76006 | -76.63533 | 32617 ft | 380 kts | 27° |
| 2026-04-21 01:53 | 38.78103 | -76.61486 | 32369 ft | 377 kts | 27° |
| 2026-04-21 01:53 | 38.80205 | -76.59434 | 32124 ft | 374 kts | 27° |
| 2026-04-21 01:53 | 38.82294 | -76.57398 | 31864 ft | 371 kts | 27° |
| 2026-04-21 01:54 | 38.84350 | -76.55395 | 31616 ft | 368 kts | 27° |
| 2026-04-21 01:54 | 38.86395 | -76.53392 | 31373 ft | 365 kts | 26° |
| 2026-04-21 01:54 | 38.88401 | -76.51427 | 31148 ft | 361 kts | 26° |
| 2026-04-21 01:54 | 38.90389 | -76.49474 | 30909 ft | 358 kts | 26° |
| 2026-04-21 01:55 | 38.92384 | -76.47510 | 30669 ft | 355 kts | 26° |
| 2026-04-21 01:55 | 38.94361 | -76.45565 | 30424 ft | 352 kts | 26° |
| 2026-04-21 01:55 | 38.96299 | -76.43657 | 30136 ft | 349 kts | 26° |
| 2026-04-21 01:55 | 38.98225 | -76.41758 | 29830 ft | 347 kts | 26° |
| 2026-04-21 01:56 | 39.00137 | -76.39873 | 29569 ft | 345 kts | 26° |
| 2026-04-21 01:56 | 39.02031 | -76.37999 | 29280 ft | 343 kts | 26° |
| 2026-04-21 01:56 | 39.03900 | -76.36083 | 29001 ft | 344 kts | 28° |
| 2026-04-21 01:56 | 39.05707 | -76.34068 | 28737 ft | 344 kts | 30° |
| 2026-04-21 01:57 | 39.07504 | -76.31964 | 28462 ft | 343 kts | 31° |
| 2026-04-21 01:57 | 39.09249 | -76.29878 | 28196 ft | 342 kts | 31° |
| 2026-04-21 01:57 | 39.10997 | -76.27789 | 27933 ft | 339 kts | 31° |
| 2026-04-21 01:57 | 39.12719 | -76.25750 | 27670 ft | 337 kts | 31° |
| 2026-04-21 01:58 | 39.13885 | -76.24376 | 27492 ft | 336 kts | 31° |
| 2026-04-21 01:58 | 39.15611 | -76.22349 | 27231 ft | 334 kts | 30° |
| 2026-04-21 01:58 | 39.17318 | -76.20351 | 27086 ft | 331 kts | 30° |
| 2026-04-21 01:58 | 39.19028 | -76.18357 | 27235 ft | 331 kts | 30° |
| 2026-04-21 01:59 | 39.20768 | -76.16331 | 27356 ft | 334 kts | 30° |
| 2026-04-21 01:59 | 39.22527 | -76.14275 | 27380 ft | 334 kts | 30° |
| 2026-04-21 01:59 | 39.24244 | -76.12262 | 27375 ft | 334 kts | 30° |
| 2026-04-21 01:59 | 39.25988 | -76.10215 | 27375 ft | 334 kts | 31° |
| 2026-04-21 02:00 | 39.27723 | -76.08176 | 27219 ft | 336 kts | 31° |
| 2026-04-21 02:00 | 39.29412 | -76.06181 | 26865 ft | 333 kts | 31° |
| 2026-04-21 02:00 | 39.31105 | -76.04174 | 26582 ft | 329 kts | 31° |
| 2026-04-21 02:00 | 39.32811 | -76.02167 | 26295 ft | 326 kts | 30° |
| 2026-04-21 02:01 | 39.34484 | -76.00210 | 26009 ft | 324 kts | 30° |
| 2026-04-21 02:01 | 39.36147 | -75.98259 | 25733 ft | 322 kts | 30° |
| 2026-04-21 02:01 | 39.37784 | -75.96336 | 25447 ft | 319 kts | 30° |
| 2026-04-21 02:01 | 39.39424 | -75.94406 | 25171 ft | 317 kts | 30° |
| 2026-04-21 02:02 | 39.41046 | -75.92495 | 24901 ft | 315 kts | 30° |
| 2026-04-21 02:02 | 39.42666 | -75.90584 | 24632 ft | 312 kts | 30° |
| 2026-04-21 02:02 | 39.44266 | -75.88699 | 24354 ft | 310 kts | 30° |
| 2026-04-21 02:02 | 39.45859 | -75.86817 | 24094 ft | 307 kts | 30° |
| 2026-04-21 02:03 | 39.47421 | -75.84962 | 23824 ft | 305 kts | 30° |
| 2026-04-21 02:03 | 39.48978 | -75.83107 | 23534 ft | 304 kts | 30° |
| 2026-04-21 02:03 | 39.50536 | -75.81258 | 23275 ft | 304 kts | 30° |
| 2026-04-21 02:03 | 39.52098 | -75.79415 | 23011 ft | 303 kts | 30° |
| 2026-04-21 02:04 | 39.53653 | -75.77572 | 22754 ft | 303 kts | 31° |
| 2026-04-21 02:04 | 39.55206 | -75.75722 | 22497 ft | 303 kts | 31° |
| 2026-04-21 02:04 | 39.56761 | -75.73878 | 22225 ft | 303 kts | 31° |
| 2026-04-21 02:04 | 39.58315 | -75.72032 | 21968 ft | 303 kts | 31° |
| 2026-04-21 02:05 | 39.59864 | -75.70183 | 21719 ft | 303 kts | 31° |
| 2026-04-21 02:05 | 39.61416 | -75.68334 | 21453 ft | 303 kts | 31° |
| 2026-04-21 02:05 | 39.62974 | -75.66479 | 21192 ft | 303 kts | 31° |
| 2026-04-21 02:05 | 39.64521 | -75.64638 | 20935 ft | 303 kts | 32° |
| 2026-04-21 02:06 | 39.66078 | -75.62787 | 20667 ft | 303 kts | 32° |
| 2026-04-21 02:06 | 39.67633 | -75.60935 | 20398 ft | 304 kts | 32° |
| 2026-04-21 02:06 | 39.69188 | -75.59078 | 20088 ft | 304 kts | 32° |
| 2026-04-21 02:06 | 39.70741 | -75.57208 | 19795 ft | 305 kts | 33° |
| 2026-04-21 02:07 | 39.72294 | -75.55334 | 19484 ft | 305 kts | 33° |
| 2026-04-21 02:07 | 39.73852 | -75.53457 | 19175 ft | 305 kts | 33° |
| 2026-04-21 02:07 | 39.75492 | -75.51482 | 18849 ft | 306 kts | 34° |
| 2026-04-21 02:07 | 39.76979 | -75.49688 | 18419 ft | 308 kts | 34° |
| 2026-04-21 02:08 | 39.78568 | -75.47774 | 17804 ft | 312 kts | 35° |
| 2026-04-21 02:08 | 39.80143 | -75.45866 | 17503 ft | 307 kts | 35° |
| 2026-04-21 02:08 | 39.81711 | -75.43965 | 17195 ft | 305 kts | 35° |
| 2026-04-21 02:08 | 39.83252 | -75.42100 | 16892 ft | 304 kts | 36° |
| 2026-04-21 02:09 | 39.84817 | -75.40206 | 16581 ft | 304 kts | 36° |
| 2026-04-21 02:09 | 39.86349 | -75.38349 | 16271 ft | 303 kts | 36° |
| 2026-04-21 02:09 | 39.87892 | -75.36478 | 15968 ft | 303 kts | 36° |
| 2026-04-21 02:09 | 39.89456 | -75.34584 | 15660 ft | 303 kts | 37° |
| 2026-04-21 02:10 | 39.91001 | -75.32712 | 15346 ft | 302 kts | 37° |
| 2026-04-21 02:10 | 39.92528 | -75.30860 | 15049 ft | 301 kts | 37° |
| 2026-04-21 02:10 | 39.94065 | -75.28995 | 14742 ft | 301 kts | 38° |
| 2026-04-21 02:10 | 39.95602 | -75.27130 | 14438 ft | 300 kts | 38° |
| 2026-04-21 02:11 | 39.97118 | -75.25288 | 14122 ft | 300 kts | 38° |
| 2026-04-21 02:11 | 39.98642 | -75.23433 | 13797 ft | 299 kts | 38° |
| 2026-04-21 02:11 | 40.00159 | -75.21587 | 13491 ft | 298 kts | 38° |
| 2026-04-21 02:11 | 40.01672 | -75.19743 | 13189 ft | 296 kts | 38° |
| 2026-04-21 02:12 | 40.03172 | -75.17916 | 12897 ft | 295 kts | 38° |
| 2026-04-21 02:12 | 40.04668 | -75.16095 | 12585 ft | 294 kts | 38° |
| 2026-04-21 02:12 | 40.06161 | -75.14274 | 12290 ft | 293 kts | 39° |
| 2026-04-21 02:12 | 40.07639 | -75.12466 | 11997 ft | 291 kts | 39° |
| 2026-04-21 02:13 | 40.09115 | -75.10660 | 11706 ft | 290 kts | 39° |
| 2026-04-21 02:13 | 40.10584 | -75.08863 | 11410 ft | 288 kts | 39° |
| 2026-04-21 02:13 | 40.12045 | -75.07077 | 11119 ft | 287 kts | 39° |
| 2026-04-21 02:13 | 40.13498 | -75.05297 | 10839 ft | 285 kts | 39° |
| 2026-04-21 02:14 | 40.14941 | -75.03530 | 10579 ft | 284 kts | 39° |
| 2026-04-21 02:14 | 40.16375 | -75.01769 | 10322 ft | 283 kts | 39° |
| 2026-04-21 02:14 | 40.17803 | -75.00017 | 10043 ft | 281 kts | 39° |
| 2026-04-21 02:14 | 40.19230 | -74.98268 | 9776 ft | 280 kts | 39° |
| 2026-04-21 02:15 | 40.20647 | -74.96528 | 9517 ft | 279 kts | 39° |
| 2026-04-21 02:15 | 40.22057 | -74.94794 | 9241 ft | 278 kts | 39° |
| 2026-04-21 02:15 | 40.23466 | -74.93064 | 8995 ft | 277 kts | 39° |
| 2026-04-21 02:15 | 40.24864 | -74.91346 | 8735 ft | 275 kts | 39° |
| 2026-04-21 02:16 | 40.26236 | -74.89597 | 8479 ft | 275 kts | 42° |
| 2026-04-21 02:16 | 40.27551 | -74.87785 | 8223 ft | 274 kts | 43° |
| 2026-04-21 02:16 | 40.28843 | -74.85951 | 7971 ft | 273 kts | 44° |
| 2026-04-21 02:16 | 40.30096 | -74.84158 | 7767 ft | 272 kts | 44° |
| 2026-04-21 02:17 | 40.31400 | -74.82296 | 7553 ft | 271 kts | 44° |
| 2026-04-21 02:17 | 40.32676 | -74.80486 | 7351 ft | 270 kts | 43° |
| 2026-04-21 02:17 | 40.33952 | -74.78686 | 7128 ft | 269 kts | 43° |
| 2026-04-21 02:17 | 40.35222 | -74.76900 | 6932 ft | 268 kts | 43° |
| 2026-04-21 02:18 | 40.36488 | -74.75118 | 6720 ft | 266 kts | 43° |
| 2026-04-21 02:18 | 40.37746 | -74.73343 | 6497 ft | 265 kts | 43° |
| 2026-04-21 02:18 | 40.39000 | -74.71573 | 6288 ft | 264 kts | 44° |
| 2026-04-21 02:18 | 40.40247 | -74.69814 | 6076 ft | 263 kts | 44° |
| 2026-04-21 02:19 | 40.41480 | -74.68050 | 5874 ft | 263 kts | 47° |
| 2026-04-21 02:19 | 40.42447 | -74.66007 | 5671 ft | 265 kts | 63° |
| 2026-04-21 02:19 | 40.43037 | -74.63728 | 5464 ft | 260 kts | 70° |
| 2026-04-21 02:19 | 40.43555 | -74.61511 | 5268 ft | 248 kts | 70° |
| 2026-04-21 02:20 | 40.44058 | -74.59391 | 5076 ft | 238 kts | 69° |
| 2026-04-21 02:20 | 40.44550 | -74.57328 | 4884 ft | 229 kts | 69° |
| 2026-04-21 02:20 | 40.45012 | -74.55400 | 4718 ft | 221 kts | 69° |
| 2026-04-21 02:20 | 40.45469 | -74.53484 | 4546 ft | 213 kts | 69° |
| 2026-04-21 02:21 | 40.45901 | -74.51662 | 4386 ft | 206 kts | 69° |
| 2026-04-21 02:21 | 40.46316 | -74.49900 | 4226 ft | 201 kts | 69° |
| 2026-04-21 02:21 | 40.46732 | -74.48134 | 4066 ft | 206 kts | 68° |
| 2026-04-21 02:21 | 40.47167 | -74.46298 | 3911 ft | 213 kts | 68° |
| 2026-04-21 02:22 | 40.47604 | -74.44448 | 3754 ft | 210 kts | 68° |
| 2026-04-21 02:22 | 40.48030 | -74.42641 | 3587 ft | 204 kts | 68° |
| 2026-04-21 02:22 | 40.48444 | -74.40889 | 3439 ft | 197 kts | 68° |
| 2026-04-21 02:22 | 40.48838 | -74.39216 | 3372 ft | 187 kts | 68° |
| 2026-04-21 02:23 | 40.49217 | -74.37599 | 3301 ft | 181 kts | 68° |
| 2026-04-21 02:23 | 40.49594 | -74.36000 | 3221 ft | 179 kts | 68° |
| 2026-04-21 02:23 | 40.49965 | -74.34437 | 3141 ft | 178 kts | 67° |
| 2026-04-21 02:23 | 40.50332 | -74.32882 | 3071 ft | 178 kts | 68° |
| 2026-04-21 02:24 | 40.50614 | -74.31689 | 3010 ft | 178 kts | 67° |
| 2026-04-21 02:24 | 40.51064 | -74.29779 | 2932 ft | 173 kts | 67° |
| 2026-04-21 02:24 | 40.51315 | -74.28784 | 2841 ft | 165 kts | 61° |
| 2026-04-21 02:24 | 40.51931 | -74.27641 | 2758 ft | 147 kts | 38° |
| 2026-04-21 02:25 | 40.52757 | -74.26932 | 2644 ft | 136 kts | 21° |
| 2026-04-21 02:25 | 40.53615 | -74.26390 | 2532 ft | 130 kts | 22° |
| 2026-04-21 02:25 | 40.54436 | -74.25870 | 2427 ft | 126 kts | 21° |
| 2026-04-21 02:25 | 40.55217 | -74.25376 | 2336 ft | 124 kts | 22° |
| 2026-04-21 02:26 | 40.55947 | -74.24914 | 2243 ft | 122 kts | 21° |
| 2026-04-21 02:26 | 40.56719 | -74.24425 | 2140 ft | 120 kts | 21° |
| 2026-04-21 02:26 | 40.57456 | -74.23958 | 2048 ft | 117 kts | 21° |
| 2026-04-21 02:26 | 40.58219 | -74.23475 | 1950 ft | 116 kts | 21° |
| 2026-04-21 02:27 | 40.58923 | -74.23029 | 1859 ft | 116 kts | 21° |
| 2026-04-21 02:27 | 40.59656 | -74.22566 | 1830 ft | 116 kts | 20° |
| 2026-04-21 02:27 | 40.60390 | -74.22100 | 1726 ft | 116 kts | 20° |
| 2026-04-21 02:27 | 40.61069 | -74.21670 | 1597 ft | 116 kts | 21° |
| 2026-04-21 02:28 | 40.61801 | -74.21206 | 1449 ft | 117 kts | 21° |
| 2026-04-21 02:28 | 40.62527 | -74.20745 | 1296 ft | 116 kts | 21° |
| 2026-04-21 02:28 | 40.63247 | -74.20289 | 1147 ft | 116 kts | 21° |
| 2026-04-21 02:28 | 40.63974 | -74.19828 | 975 ft | 116 kts | 22° |
| 2026-04-21 02:29 | 40.64700 | -74.19367 | 805 ft | 117 kts | 22° |
| 2026-04-21 02:29 | 40.65433 | -74.18902 | 660 ft | 117 kts | 22° |
| 2026-04-21 02:29 | 40.66180 | -74.18428 | 487 ft | 118 kts | 21° |
| 2026-04-21 02:29 | 40.66903 | -74.17969 | 324 ft | 118 kts | 22° |
| 2026-04-21 02:30 | 40.67645 | -74.17498 | 162 ft | 117 kts | 21° |
| 2026-04-21 02:30 | 40.68371 | -74.17036 | 23 ft | 108 kts | 21° |
| 2026-04-21 02:30 | 40.68928 | -74.16685 | 20 ft | 65 kts | 27° |
| 2026-04-21 02:30 | 40.69188 | -74.16519 | 24 ft | 26 kts | 25° |
| 2026-04-21 02:31 | 40.69354 | -74.16448 | 25 ft | 24 kts | 3° |
| 2026-04-21 02:31 | 40.69520 | -74.16463 | 22 ft | 22 kts | 355° |
| 2026-04-21 02:31 | 40.69539 | -74.16466 | 21 ft | 0 kts | 354° |
| 2026-04-21 02:32 | 40.69541 | -74.16466 | 21 ft | 3 kts | 354° |
| 2026-04-21 02:32 | 40.69598 | -74.16500 | 20 ft | 12 kts | 307° |
| 2026-04-21 02:32 | 40.69634 | -74.16598 | 20 ft | 12 kts | 299° |
| 2026-04-21 02:33 | 40.69676 | -74.16706 | 19 ft | 15 kts | 291° |
| 2026-04-21 02:33 | 40.69661 | -74.16844 | 19 ft | 17 kts | 249° |
| 2026-04-21 02:33 | 40.69633 | -74.16941 | 19 ft | 0 kts | 250° |
| 2026-04-21 02:34 | 40.69624 | -74.16975 | 19 ft | 10 kts | 250° |
| 2026-04-21 02:35 | 40.69605 | -74.17074 | 20 ft | 11 kts | 267° |
| 2026-04-21 02:35 | 40.69656 | -74.17139 | 21 ft | 11 kts | 336° |
| 2026-04-21 02:35 | 40.69723 | -74.17191 | 21 ft | 9 kts | 317° |
| 2026-04-21 02:35 | 40.69719 | -74.17275 | 21 ft | 11 kts | 258° |
| 2026-04-21 02:36 | 40.69673 | -74.17365 | 21 ft | 14 kts | 222° |
| 2026-04-21 02:36 | 40.69608 | -74.17415 | 19 ft | 11 kts | 179° |
| 2026-04-21 02:36 | 40.69556 | -74.17426 | 19 ft | 6 kts | 151° |
| 2026-04-21 02:36 | 40.69547 | -74.17415 | 19 ft | 0 kts | 137° |